This is the latest recevied weather packets stored in our database for station/object KB1YYC. If no packets are shown the sender has not sent any weather packets the latest 1 day(s).
| Time | Temp. | Humidity | Pressure | Rain* | Wind** | Luminosity | Snow |
|---|---|---|---|---|---|---|---|
| 1778031532 | 18.33° C | 69% | 1008.4 hPa | 0 mm | - | 0 W/m² | - |
| 1778030926 | 18.89° C | 69% | 1008.6 hPa | 0 mm | - | 0 W/m² | - |
| 1778030017 | 18.89° C | 67% | 1008.7 hPa | 0 mm | - | 0 W/m² | - |
| 1778029413 | 18.89° C | 66% | 1008.4 hPa | 0 mm | - | 0 W/m² | - |
| 1778029109 | 18.89° C | 66% | 1008.5 hPa | 0 mm | - | 0 W/m² | - |
| 1778028806 | 18.89° C | 67% | 1008.4 hPa | 0 mm | - | 0 W/m² | - |
| 1778028502 | 19.44° C | 66% | 1008.3 hPa | 0 mm | - | 0 W/m² | - |
| 1778028200 | 19.44° C | 66% | 1008.2 hPa | 0 mm | - | 0 W/m² | - |
| 1778027592 | 18.89° C | 68% | 1008.1 hPa | 0 mm | - | 0 W/m² | - |
| 1778026985 | 18.89° C | 69% | 1008.1 hPa | 0 mm | - | 0 W/m² | - |
| 1778026681 | 18.89° C | 69% | 1008 hPa | 0 mm | - | 0 W/m² | - |
| 1778026075 | 19.44° C | 68% | 1007.7 hPa | 0 mm | - | 0 W/m² | - |
| 1778025773 | 19.44° C | 67% | 1007.8 hPa | 0 mm | - | 0 W/m² | - |
| 1778022746 | 20.56° C | 62% | 1006.5 hPa | 0 mm | - | 5 W/m² | - |
| 1778022140 | 21.11° C | 59% | 1006.7 hPa | 0 mm | - | 2 W/m² | - |
| 1778021229 | 21.11° C | 57% | 1006.5 hPa | 0 mm | - | 2 W/m² | - |
| 1778019410 | 21.11° C | 55% | 1004.4 hPa | 0 mm | - | 72 W/m² | - |
| 1778016381 | 22.78° C | 50% | 1004 hPa | 0 mm | - | 75 W/m² | - |
| 1778015473 | 23.89° C | 49% | 1003.9 hPa | 0 mm | - | 102 W/m² | - |
| 1778013656 | 23.89° C | 48% | 1003.3 hPa | 0 mm | - | 100 W/m² | - |
| 1778011534 | 25° C | 47% | 1003.7 hPa | 0 mm | - | 118 W/m² | - |
| 1778008807 | 25° C | 46% | 1004.3 hPa | 0 mm | - | 404 W/m² | - |
| 1778007897 | 25° C | 45% | 1004.5 hPa | 0 mm | - | 509 W/m² | - |
| 1778005471 | 26.11° C | 44% | 1005 hPa | 0 mm | - | 157 W/m² | - |
| 1778004561 | 28.33° C | 35% | 1005 hPa | 0 mm | - | 699 W/m² | - |
* Rain latest hour (hover to see other rain measurements)
** Current wind speed in m/s (hover to see current wind gust speed)